sensor_id;sensor_type;location;lat;lon;timestamp;P1;durP1;ratioP1;P2;durP2;ratioP2
39898;SDS011;25571;47.876;10.642;2024-01-30T00:01:02;9.20;;;4.80;;
39898;SDS011;25571;47.876;10.642;2024-01-30T00:03:27;7.32;;;4.22;;
39898;SDS011;25571;47.876;10.642;2024-01-30T00:05:54;8.52;;;5.45;;
39898;SDS011;25571;47.876;10.642;2024-01-30T00:08:20;9.13;;;5.15;;
39898;SDS011;25571;47.876;10.642;2024-01-30T00:10:46;10.65;;;5.70;;
39898;SDS011;25571;47.876;10.642;2024-01-30T00:13:11;7.18;;;4.50;;
39898;SDS011;25571;47.876;10.642;2024-01-30T00:15:38;7.13;;;4.53;;
39898;SDS011;25571;47.876;10.642;2024-01-30T00:18:04;7.57;;;5.07;;
39898;SDS011;25571;47.876;10.642;2024-01-30T00:20:30;8.18;;;4.75;;
39898;SDS011;25571;47.876;10.642;2024-01-30T00:22:55;7.95;;;4.85;;
39898;SDS011;25571;47.876;10.642;2024-01-30T00:25:21;10.63;;;5.25;;
39898;SDS011;25571;47.876;10.642;2024-01-30T00:27:46;9.48;;;4.95;;
39898;SDS011;25571;47.876;10.642;2024-01-30T00:30:12;10.80;;;5.13;;
39898;SDS011;25571;47.876;10.642;2024-01-30T00:32:38;9.70;;;5.60;;
39898;SDS011;25571;47.876;10.642;2024-01-30T00:35:03;11.18;;;5.38;;
39898;SDS011;25571;47.876;10.642;2024-01-30T00:37:29;7.32;;;4.63;;
39898;SDS011;25571;47.876;10.642;2024-01-30T00:39:56;7.75;;;4.78;;
39898;SDS011;25571;47.876;10.642;2024-01-30T00:42:22;6.40;;;4.13;;
39898;SDS011;25571;47.876;10.642;2024-01-30T00:44:49;6.40;;;4.00;;
39898;SDS011;25571;47.876;10.642;2024-01-30T00:47:15;6.03;;;3.55;;
39898;SDS011;25571;47.876;10.642;2024-01-30T00:49:41;4.72;;;3.55;;
39898;SDS011;25571;47.876;10.642;2024-01-30T00:52:06;6.15;;;3.55;;
39898;SDS011;25571;47.876;10.642;2024-01-30T00:54:32;5.90;;;3.75;;
39898;SDS011;25571;47.876;10.642;2024-01-30T00:56:57;6.53;;;4.30;;
39898;SDS011;25571;47.876;10.642;2024-01-30T00:59:23;6.07;;;3.85;;
39898;SDS011;25571;47.876;10.642;2024-01-30T01:01:48;5.47;;;3.70;;
39898;SDS011;25571;47.876;10.642;2024-01-30T01:04:14;5.30;;;3.53;;
39898;SDS011;25571;47.876;10.642;2024-01-30T01:06:40;6.60;;;3.30;;
39898;SDS011;25571;47.876;10.642;2024-01-30T01:09:08;5.80;;;3.40;;
39898;SDS011;25571;47.876;10.642;2024-01-30T01:11:36;7.75;;;3.65;;
39898;SDS011;25571;47.876;10.642;2024-01-30T01:14:02;3.97;;;3.00;;
39898;SDS011;25571;47.876;10.642;2024-01-30T01:16:28;6.95;;;4.03;;
39898;SDS011;25571;47.876;10.642;2024-01-30T01:18:54;6.35;;;3.67;;
39898;SDS011;25571;47.876;10.642;2024-01-30T01:21:20;4.95;;;3.72;;
39898;SDS011;25571;47.876;10.642;2024-01-30T01:23:46;5.60;;;3.72;;
39898;SDS011;25571;47.876;10.642;2024-01-30T01:26:11;7.63;;;3.97;;
39898;SDS011;25571;47.876;10.642;2024-01-30T01:28:38;8.55;;;4.25;;
39898;SDS011;25571;47.876;10.642;2024-01-30T01:31:06;7.18;;;3.88;;
39898;SDS011;25571;47.876;10.642;2024-01-30T01:33:32;7.97;;;3.97;;
39898;SDS011;25571;47.876;10.642;2024-01-30T01:35:58;5.55;;;3.88;;
39898;SDS011;25571;47.876;10.642;2024-01-30T01:38:24;7.28;;;4.10;;
39898;SDS011;25571;47.876;10.642;2024-01-30T01:40:50;6.57;;;3.60;;
39898;SDS011;25571;47.876;10.642;2024-01-30T01:43:16;5.57;;;3.67;;
39898;SDS011;25571;47.876;10.642;2024-01-30T01:45:42;7.28;;;3.58;;
39898;SDS011;25571;47.876;10.642;2024-01-30T01:48:07;4.93;;;3.53;;
39898;SDS011;25571;47.876;10.642;2024-01-30T01:50:34;5.22;;;3.22;;
39898;SDS011;25571;47.876;10.642;2024-01-30T01:53:00;5.68;;;3.80;;
39898;SDS011;25571;47.876;10.642;2024-01-30T01:55:28;5.32;;;3.25;;
39898;SDS011;25571;47.876;10.642;2024-01-30T01:57:55;6.00;;;3.92;;
39898;SDS011;25571;47.876;10.642;2024-01-30T02:00:21;4.80;;;3.25;;
39898;SDS011;25571;47.876;10.642;2024-01-30T02:02:48;4.35;;;2.92;;
39898;SDS011;25571;47.876;10.642;2024-01-30T02:05:15;4.72;;;3.05;;
39898;SDS011;25571;47.876;10.642;2024-01-30T02:07:41;6.07;;;3.60;;
39898;SDS011;25571;47.876;10.642;2024-01-30T02:10:08;5.40;;;3.00;;
39898;SDS011;25571;47.876;10.642;2024-01-30T02:12:35;5.03;;;3.00;;
39898;SDS011;25571;47.876;10.642;2024-01-30T02:15:00;6.55;;;3.00;;
39898;SDS011;25571;47.876;10.642;2024-01-30T02:17:26;5.53;;;2.75;;
39898;SDS011;25571;47.876;10.642;2024-01-30T02:19:52;5.30;;;2.88;;
39898;SDS011;25571;47.876;10.642;2024-01-30T02:22:17;3.63;;;2.67;;
39898;SDS011;25571;47.876;10.642;2024-01-30T02:24:45;4.13;;;2.83;;
39898;SDS011;25571;47.876;10.642;2024-01-30T02:27:10;5.93;;;3.03;;
39898;SDS011;25571;47.876;10.642;2024-01-30T02:29:36;4.75;;;3.20;;
39898;SDS011;25571;47.876;10.642;2024-01-30T02:32:02;6.70;;;3.47;;
39898;SDS011;25571;47.876;10.642;2024-01-30T02:34:28;5.32;;;3.45;;
39898;SDS011;25571;47.876;10.642;2024-01-30T02:36:53;3.78;;;3.08;;
39898;SDS011;25571;47.876;10.642;2024-01-30T02:39:19;5.15;;;3.30;;
39898;SDS011;25571;47.876;10.642;2024-01-30T02:41:44;4.55;;;3.25;;
39898;SDS011;25571;47.876;10.642;2024-01-30T02:44:10;4.65;;;3.10;;
39898;SDS011;25571;47.876;10.642;2024-01-30T02:46:36;5.88;;;3.10;;
39898;SDS011;25571;47.876;10.642;2024-01-30T02:49:01;5.72;;;3.10;;
39898;SDS011;25571;47.876;10.642;2024-01-30T02:51:27;4.25;;;2.80;;
39898;SDS011;25571;47.876;10.642;2024-01-30T02:53:52;5.40;;;3.00;;
39898;SDS011;25571;47.876;10.642;2024-01-30T02:56:18;5.38;;;2.95;;
39898;SDS011;25571;47.876;10.642;2024-01-30T02:58:43;4.18;;;2.90;;
39898;SDS011;25571;47.876;10.642;2024-01-30T03:01:09;6.43;;;2.83;;
39898;SDS011;25571;47.876;10.642;2024-01-30T03:03:34;6.72;;;3.50;;
39898;SDS011;25571;47.876;10.642;2024-01-30T03:06:01;6.18;;;3.50;;
39898;SDS011;25571;47.876;10.642;2024-01-30T03:08:27;6.70;;;3.70;;
39898;SDS011;25571;47.876;10.642;2024-01-30T03:10:52;5.32;;;3.15;;
39898;SDS011;25571;47.876;10.642;2024-01-30T03:13:18;5.78;;;2.80;;
39898;SDS011;25571;47.876;10.642;2024-01-30T03:15:44;5.00;;;3.15;;
39898;SDS011;25571;47.876;10.642;2024-01-30T03:18:10;3.95;;;2.80;;
39898;SDS011;25571;47.876;10.642;2024-01-30T03:20:35;5.22;;;3.45;;
39898;SDS011;25571;47.876;10.642;2024-01-30T03:23:01;5.32;;;3.00;;
39898;SDS011;25571;47.876;10.642;2024-01-30T03:25:26;3.50;;;2.40;;
39898;SDS011;25571;47.876;10.642;2024-01-30T03:27:52;4.72;;;2.70;;
39898;SDS011;25571;47.876;10.642;2024-01-30T03:30:17;4.18;;;2.72;;
39898;SDS011;25571;47.876;10.642;2024-01-30T03:32:43;4.70;;;2.65;;
39898;SDS011;25571;47.876;10.642;2024-01-30T03:35:09;4.32;;;2.72;;
39898;SDS011;25571;47.876;10.642;2024-01-30T03:37:35;4.53;;;2.83;;
39898;SDS011;25571;47.876;10.642;2024-01-30T03:40:01;5.63;;;2.78;;
39898;SDS011;25571;47.876;10.642;2024-01-30T03:42:28;3.75;;;2.75;;
39898;SDS011;25571;47.876;10.642;2024-01-30T03:44:53;3.78;;;2.53;;
39898;SDS011;25571;47.876;10.642;2024-01-30T03:47:20;4.15;;;2.60;;
39898;SDS011;25571;47.876;10.642;2024-01-30T03:49:45;3.50;;;2.50;;
39898;SDS011;25571;47.876;10.642;2024-01-30T03:52:11;3.70;;;2.42;;
39898;SDS011;25571;47.876;10.642;2024-01-30T03:54:36;4.07;;;2.47;;
39898;SDS011;25571;47.876;10.642;2024-01-30T03:57:02;4.30;;;2.60;;
39898;SDS011;25571;47.876;10.642;2024-01-30T03:59:28;5.10;;;2.90;;
39898;SDS011;25571;47.876;10.642;2024-01-30T04:01:54;3.78;;;2.72;;
39898;SDS011;25571;47.876;10.642;2024-01-30T04:04:19;4.38;;;2.55;;
39898;SDS011;25571;47.876;10.642;2024-01-30T04:06:45;4.53;;;2.40;;
39898;SDS011;25571;47.876;10.642;2024-01-30T04:09:12;3.78;;;2.70;;
39898;SDS011;25571;47.876;10.642;2024-01-30T04:11:38;4.07;;;2.17;;
39898;SDS011;25571;47.876;10.642;2024-01-30T04:14:04;4.85;;;2.58;;
39898;SDS011;25571;47.876;10.642;2024-01-30T04:16:29;4.65;;;2.10;;
39898;SDS011;25571;47.876;10.642;2024-01-30T04:18:55;2.38;;;2.00;;
39898;SDS011;25571;47.876;10.642;2024-01-30T04:21:21;3.75;;;2.25;;
39898;SDS011;25571;47.876;10.642;2024-01-30T04:23:47;6.40;;;2.35;;
39898;SDS011;25571;47.876;10.642;2024-01-30T04:26:13;3.88;;;2.45;;
39898;SDS011;25571;47.876;10.642;2024-01-30T04:28:41;3.25;;;2.28;;
39898;SDS011;25571;47.876;10.642;2024-01-30T04:31:07;3.65;;;2.10;;
39898;SDS011;25571;47.876;10.642;2024-01-30T04:33:32;3.25;;;2.13;;
39898;SDS011;25571;47.876;10.642;2024-01-30T04:35:58;5.22;;;2.63;;
39898;SDS011;25571;47.876;10.642;2024-01-30T04:38:24;4.18;;;2.53;;
39898;SDS011;25571;47.876;10.642;2024-01-30T04:40:49;4.05;;;2.67;;
39898;SDS011;25571;47.876;10.642;2024-01-30T04:43:15;4.30;;;2.17;;
39898;SDS011;25571;47.876;10.642;2024-01-30T04:45:41;3.33;;;2.08;;
39898;SDS011;25571;47.876;10.642;2024-01-30T04:48:07;4.32;;;2.17;;
39898;SDS011;25571;47.876;10.642;2024-01-30T04:50:32;3.40;;;1.83;;
39898;SDS011;25571;47.876;10.642;2024-01-30T04:52:58;3.60;;;2.20;;
39898;SDS011;25571;47.876;10.642;2024-01-30T04:55:23;3.50;;;2.38;;
39898;SDS011;25571;47.876;10.642;2024-01-30T04:57:49;4.80;;;2.08;;
39898;SDS011;25571;47.876;10.642;2024-01-30T05:00:15;4.60;;;2.97;;
39898;SDS011;25571;47.876;10.642;2024-01-30T05:02:41;4.35;;;2.35;;
39898;SDS011;25571;47.876;10.642;2024-01-30T05:05:06;3.72;;;2.45;;
39898;SDS011;25571;47.876;10.642;2024-01-30T05:07:32;4.00;;;2.45;;
39898;SDS011;25571;47.876;10.642;2024-01-30T05:09:59;4.00;;;2.20;;
39898;SDS011;25571;47.876;10.642;2024-01-30T05:12:24;3.25;;;2.15;;
39898;SDS011;25571;47.876;10.642;2024-01-30T05:14:50;2.67;;;1.73;;
39898;SDS011;25571;47.876;10.642;2024-01-30T05:17:16;2.85;;;1.92;;
39898;SDS011;25571;47.876;10.642;2024-01-30T05:19:42;5.88;;;2.10;;
39898;SDS011;25571;47.876;10.642;2024-01-30T05:22:08;3.17;;;2.13;;
39898;SDS011;25571;47.876;10.642;2024-01-30T05:24:34;3.30;;;2.08;;
39898;SDS011;25571;47.876;10.642;2024-01-30T05:27:00;2.72;;;1.92;;
39898;SDS011;25571;47.876;10.642;2024-01-30T05:29:26;3.65;;;2.33;;
39898;SDS011;25571;47.876;10.642;2024-01-30T05:31:52;5.80;;;2.53;;
39898;SDS011;25571;47.876;10.642;2024-01-30T05:34:17;3.17;;;2.00;;
39898;SDS011;25571;47.876;10.642;2024-01-30T05:36:43;6.13;;;2.83;;
39898;SDS011;25571;47.876;10.642;2024-01-30T05:39:09;4.35;;;2.47;;
39898;SDS011;25571;47.876;10.642;2024-01-30T05:41:35;5.82;;;2.40;;
39898;SDS011;25571;47.876;10.642;2024-01-30T05:44:00;4.15;;;2.40;;
39898;SDS011;25571;47.876;10.642;2024-01-30T05:46:26;3.65;;;2.30;;
39898;SDS011;25571;47.876;10.642;2024-01-30T05:48:52;4.78;;;2.50;;
39898;SDS011;25571;47.876;10.642;2024-01-30T05:51:18;4.00;;;2.22;;
39898;SDS011;25571;47.876;10.642;2024-01-30T05:53:43;7.40;;;2.90;;
39898;SDS011;25571;47.876;10.642;2024-01-30T05:56:09;4.68;;;2.20;;
39898;SDS011;25571;47.876;10.642;2024-01-30T05:58:34;4.80;;;2.67;;
39898;SDS011;25571;47.876;10.642;2024-01-30T06:01:02;4.15;;;2.70;;
39898;SDS011;25571;47.876;10.642;2024-01-30T06:03:28;6.68;;;3.33;;
39898;SDS011;25571;47.876;10.642;2024-01-30T06:05:53;5.68;;;2.67;;
39898;SDS011;25571;47.876;10.642;2024-01-30T06:08:19;5.32;;;2.42;;
39898;SDS011;25571;47.876;10.642;2024-01-30T06:10:45;2.88;;;2.10;;
39898;SDS011;25571;47.876;10.642;2024-01-30T06:13:10;3.65;;;2.47;;
39898;SDS011;25571;47.876;10.642;2024-01-30T06:15:36;3.75;;;1.90;;
39898;SDS011;25571;47.876;10.642;2024-01-30T06:18:02;4.53;;;2.50;;
39898;SDS011;25571;47.876;10.642;2024-01-30T06:20:27;4.05;;;2.40;;
39898;SDS011;25571;47.876;10.642;2024-01-30T06:22:53;3.28;;;1.83;;
39898;SDS011;25571;47.876;10.642;2024-01-30T06:25:18;2.70;;;1.83;;
39898;SDS011;25571;47.876;10.642;2024-01-30T06:27:44;4.38;;;1.90;;
39898;SDS011;25571;47.876;10.642;2024-01-30T06:30:10;2.58;;;2.00;;
39898;SDS011;25571;47.876;10.642;2024-01-30T06:32:36;2.50;;;1.73;;
39898;SDS011;25571;47.876;10.642;2024-01-30T06:35:02;3.00;;;1.83;;
39898;SDS011;25571;47.876;10.642;2024-01-30T06:37:28;2.00;;;1.77;;
39898;SDS011;25571;47.876;10.642;2024-01-30T06:39:53;2.33;;;1.80;;
39898;SDS011;25571;47.876;10.642;2024-01-30T06:42:19;3.03;;;1.50;;
39898;SDS011;25571;47.876;10.642;2024-01-30T06:44:45;3.85;;;2.00;;
39898;SDS011;25571;47.876;10.642;2024-01-30T06:47:10;3.53;;;1.90;;
39898;SDS011;25571;47.876;10.642;2024-01-30T06:49:36;3.53;;;1.98;;
39898;SDS011;25571;47.876;10.642;2024-01-30T06:52:07;3.65;;;2.22;;
39898;SDS011;25571;47.876;10.642;2024-01-30T06:54:33;3.20;;;2.15;;
39898;SDS011;25571;47.876;10.642;2024-01-30T06:56:59;3.10;;;1.80;;
39898;SDS011;25571;47.876;10.642;2024-01-30T06:59:24;3.45;;;1.95;;
39898;SDS011;25571;47.876;10.642;2024-01-30T07:01:50;2.50;;;1.90;;
39898;SDS011;25571;47.876;10.642;2024-01-30T07:04:15;3.47;;;1.77;;
39898;SDS011;25571;47.876;10.642;2024-01-30T07:06:41;3.30;;;2.05;;
39898;SDS011;25571;47.876;10.642;2024-01-30T07:09:07;3.63;;;2.40;;
39898;SDS011;25571;47.876;10.642;2024-01-30T07:11:33;4.65;;;2.42;;
39898;SDS011;25571;47.876;10.642;2024-01-30T07:13:59;3.08;;;2.10;;
39898;SDS011;25571;47.876;10.642;2024-01-30T07:16:24;2.78;;;1.98;;
39898;SDS011;25571;47.876;10.642;2024-01-30T07:18:50;2.83;;;2.10;;
39898;SDS011;25571;47.876;10.642;2024-01-30T07:21:16;3.35;;;1.92;;
39898;SDS011;25571;47.876;10.642;2024-01-30T07:23:42;6.13;;;2.35;;
39898;SDS011;25571;47.876;10.642;2024-01-30T07:26:08;2.50;;;2.25;;
39898;SDS011;25571;47.876;10.642;2024-01-30T07:28:34;4.07;;;2.20;;
39898;SDS011;25571;47.876;10.642;2024-01-30T07:31:00;2.47;;;1.90;;
39898;SDS011;25571;47.876;10.642;2024-01-30T07:33:26;2.97;;;2.10;;
39898;SDS011;25571;47.876;10.642;2024-01-30T07:35:53;3.63;;;2.10;;
39898;SDS011;25571;47.876;10.642;2024-01-30T07:38:19;2.00;;;1.70;;
39898;SDS011;25571;47.876;10.642;2024-01-30T07:40:44;5.57;;;2.22;;
39898;SDS011;25571;47.876;10.642;2024-01-30T07:43:10;3.75;;;2.22;;
39898;SDS011;25571;47.876;10.642;2024-01-30T07:45:36;3.47;;;2.08;;
39898;SDS011;25571;47.876;10.642;2024-01-30T07:48:03;4.85;;;2.70;;
39898;SDS011;25571;47.876;10.642;2024-01-30T07:50:30;4.82;;;2.30;;
39898;SDS011;25571;47.876;10.642;2024-01-30T07:52:56;3.88;;;2.40;;
39898;SDS011;25571;47.876;10.642;2024-01-30T07:55:22;4.50;;;2.70;;
39898;SDS011;25571;47.876;10.642;2024-01-30T07:57:51;4.82;;;2.58;;
39898;SDS011;25571;47.876;10.642;2024-01-30T08:00:17;5.43;;;2.78;;
39898;SDS011;25571;47.876;10.642;2024-01-30T08:02:44;2.95;;;2.10;;
39898;SDS011;25571;47.876;10.642;2024-01-30T08:05:10;6.28;;;2.30;;
39898;SDS011;25571;47.876;10.642;2024-01-30T08:07:36;2.88;;;1.88;;
39898;SDS011;25571;47.876;10.642;2024-01-30T08:10:02;2.97;;;2.20;;
39898;SDS011;25571;47.876;10.642;2024-01-30T08:12:28;2.75;;;1.60;;
39898;SDS011;25571;47.876;10.642;2024-01-30T08:14:54;4.40;;;2.40;;
39898;SDS011;25571;47.876;10.642;2024-01-30T08:17:19;3.92;;;2.45;;
39898;SDS011;25571;47.876;10.642;2024-01-30T08:19:45;2.83;;;2.00;;
39898;SDS011;25571;47.876;10.642;2024-01-30T08:22:11;4.22;;;1.98;;
39898;SDS011;25571;47.876;10.642;2024-01-30T08:24:37;2.75;;;1.80;;
39898;SDS011;25571;47.876;10.642;2024-01-30T08:27:05;2.67;;;1.95;;
39898;SDS011;25571;47.876;10.642;2024-01-30T08:29:31;2.00;;;1.70;;
39898;SDS011;25571;47.876;10.642;2024-01-30T08:31:57;3.28;;;1.80;;
39898;SDS011;25571;47.876;10.642;2024-01-30T08:34:24;2.67;;;1.52;;
39898;SDS011;25571;47.876;10.642;2024-01-30T08:36:49;3.35;;;1.70;;
39898;SDS011;25571;47.876;10.642;2024-01-30T08:39:15;2.10;;;1.50;;
39898;SDS011;25571;47.876;10.642;2024-01-30T08:41:41;4.22;;;1.92;;
39898;SDS011;25571;47.876;10.642;2024-01-30T08:44:07;4.57;;;1.95;;
39898;SDS011;25571;47.876;10.642;2024-01-30T08:46:33;1.98;;;1.58;;
39898;SDS011;25571;47.876;10.642;2024-01-30T08:48:59;2.97;;;1.80;;
39898;SDS011;25571;47.876;10.642;2024-01-30T08:51:24;2.40;;;1.90;;
39898;SDS011;25571;47.876;10.642;2024-01-30T08:53:50;3.40;;;1.88;;
39898;SDS011;25571;47.876;10.642;2024-01-30T08:56:17;3.53;;;2.08;;
39898;SDS011;25571;47.876;10.642;2024-01-30T08:58:43;2.05;;;1.85;;
39898;SDS011;25571;47.876;10.642;2024-01-30T09:01:08;3.53;;;2.20;;
39898;SDS011;25571;47.876;10.642;2024-01-30T09:03:34;2.60;;;2.00;;
39898;SDS011;25571;47.876;10.642;2024-01-30T09:06:01;3.38;;;1.90;;
39898;SDS011;25571;47.876;10.642;2024-01-30T09:08:27;2.58;;;1.75;;
39898;SDS011;25571;47.876;10.642;2024-01-30T09:10:53;2.45;;;1.65;;
39898;SDS011;25571;47.876;10.642;2024-01-30T09:13:18;1.95;;;1.63;;
39898;SDS011;25571;47.876;10.642;2024-01-30T09:15:44;2.45;;;1.30;;
39898;SDS011;25571;47.876;10.642;2024-01-30T09:18:10;2.13;;;1.60;;
39898;SDS011;25571;47.876;10.642;2024-01-30T09:20:35;2.00;;;1.30;;
39898;SDS011;25571;47.876;10.642;2024-01-30T09:23:01;1.90;;;1.10;;
39898;SDS011;25571;47.876;10.642;2024-01-30T09:25:26;1.30;;;1.10;;
39898;SDS011;25571;47.876;10.642;2024-01-30T09:27:52;2.78;;;0.98;;
39898;SDS011;25571;47.876;10.642;2024-01-30T09:30:17;1.90;;;1.45;;
39898;SDS011;25571;47.876;10.642;2024-01-30T09:32:43;1.50;;;1.17;;
39898;SDS011;25571;47.876;10.642;2024-01-30T09:35:09;2.85;;;1.30;;
39898;SDS011;25571;47.876;10.642;2024-01-30T09:37:34;2.25;;;1.50;;
39898;SDS011;25571;47.876;10.642;2024-01-30T09:40:00;1.80;;;1.30;;
39898;SDS011;25571;47.876;10.642;2024-01-30T09:42:35;1.48;;;1.08;;
39898;SDS011;25571;47.876;10.642;2024-01-30T09:45:01;1.10;;;0.80;;
39898;SDS011;25571;47.876;10.642;2024-01-30T09:47:43;1.80;;;1.08;;
39898;SDS011;25571;47.876;10.642;2024-01-30T09:50:10;1.25;;;1.10;;
39898;SDS011;25571;47.876;10.642;2024-01-30T09:52:37;1.17;;;1.00;;
39898;SDS011;25571;47.876;10.642;2024-01-30T09:55:05;1.27;;;0.90;;
39898;SDS011;25571;47.876;10.642;2024-01-30T09:57:31;1.13;;;1.02;;
39898;SDS011;25571;47.876;10.642;2024-01-30T09:59:57;2.10;;;1.08;;
39898;SDS011;25571;47.876;10.642;2024-01-30T10:02:23;1.20;;;0.98;;
39898;SDS011;25571;47.876;10.642;2024-01-30T10:04:49;1.10;;;1.00;;
39898;SDS011;25571;47.876;10.642;2024-01-30T10:07:17;1.25;;;1.00;;
39898;SDS011;25571;47.876;10.642;2024-01-30T10:09:43;1.67;;;1.08;;
39898;SDS011;25571;47.876;10.642;2024-01-30T10:12:09;1.90;;;1.38;;
39898;SDS011;25571;47.876;10.642;2024-01-30T10:14:38;1.73;;;1.10;;
39898;SDS011;25571;47.876;10.642;2024-01-30T10:17:04;1.75;;;1.30;;
39898;SDS011;25571;47.876;10.642;2024-01-30T10:19:30;2.25;;;0.85;;
39898;SDS011;25571;47.876;10.642;2024-01-30T10:21:56;3.38;;;1.25;;
39898;SDS011;25571;47.876;10.642;2024-01-30T10:24:25;0.90;;;0.80;;
39898;SDS011;25571;47.876;10.642;2024-01-30T10:26:54;1.17;;;0.90;;
39898;SDS011;25571;47.876;10.642;2024-01-30T10:29:20;1.30;;;1.13;;
39898;SDS011;25571;47.876;10.642;2024-01-30T10:31:56;1.30;;;1.20;;
39898;SDS011;25571;47.876;10.642;2024-01-30T10:34:29;1.63;;;1.00;;
39898;SDS011;25571;47.876;10.642;2024-01-30T10:37:08;3.03;;;1.33;;
39898;SDS011;25571;47.876;10.642;2024-01-30T10:39:40;3.67;;;1.25;;
39898;SDS011;25571;47.876;10.642;2024-01-30T10:42:10;4.90;;;1.80;;
39898;SDS011;25571;47.876;10.642;2024-01-30T10:47:33;1.48;;;1.20;;
39898;SDS011;25571;47.876;10.642;2024-01-30T10:50:01;1.85;;;1.23;;
39898;SDS011;25571;47.876;10.642;2024-01-30T10:52:28;2.53;;;1.10;;
39898;SDS011;25571;47.876;10.642;2024-01-30T10:54:55;1.40;;;1.02;;
39898;SDS011;25571;47.876;10.642;2024-01-30T10:57:24;2.05;;;1.20;;
39898;SDS011;25571;47.876;10.642;2024-01-30T10:59:52;3.53;;;1.33;;
39898;SDS011;25571;47.876;10.642;2024-01-30T11:02:21;1.70;;;0.90;;
39898;SDS011;25571;47.876;10.642;2024-01-30T11:04:49;2.95;;;1.38;;
39898;SDS011;25571;47.876;10.642;2024-01-30T11:07:18;1.55;;;1.10;;
39898;SDS011;25571;47.876;10.642;2024-01-30T11:09:51;2.35;;;1.33;;
39898;SDS011;25571;47.876;10.642;2024-01-30T11:12:40;1.20;;;1.02;;
39898;SDS011;25571;47.876;10.642;2024-01-30T11:15:06;1.42;;;1.30;;
39898;SDS011;25571;47.876;10.642;2024-01-30T11:20:22;1.73;;;1.38;;
39898;SDS011;25571;47.876;10.642;2024-01-30T11:22:52;2.38;;;1.45;;
39898;SDS011;25571;47.876;10.642;2024-01-30T11:25:22;3.05;;;1.85;;
39898;SDS011;25571;47.876;10.642;2024-01-30T11:27:54;3.83;;;1.42;;
39898;SDS011;25571;47.876;10.642;2024-01-30T11:30:24;3.05;;;1.50;;
39898;SDS011;25571;47.876;10.642;2024-01-30T11:35:43;1.92;;;1.40;;
39898;SDS011;25571;47.876;10.642;2024-01-30T11:38:10;2.65;;;1.85;;
39898;SDS011;25571;47.876;10.642;2024-01-30T11:40:37;2.78;;;1.60;;
39898;SDS011;25571;47.876;10.642;2024-01-30T11:43:04;3.70;;;1.88;;
39898;SDS011;25571;47.876;10.642;2024-01-30T11:45:31;2.00;;;1.60;;
39898;SDS011;25571;47.876;10.642;2024-01-30T11:47:58;2.22;;;1.77;;
39898;SDS011;25571;47.876;10.642;2024-01-30T11:50:29;1.92;;;1.50;;
39898;SDS011;25571;47.876;10.642;2024-01-30T11:52:59;2.78;;;2.33;;
39898;SDS011;25571;47.876;10.642;2024-01-30T11:55:25;3.75;;;1.90;;
39898;SDS011;25571;47.876;10.642;2024-01-30T11:57:51;2.53;;;1.75;;
39898;SDS011;25571;47.876;10.642;2024-01-30T12:00:20;1.65;;;1.50;;
39898;SDS011;25571;47.876;10.642;2024-01-30T12:02:49;3.13;;;1.70;;
39898;SDS011;25571;47.876;10.642;2024-01-30T12:05:15;5.68;;;1.70;;
39898;SDS011;25571;47.876;10.642;2024-01-30T12:07:44;1.90;;;1.42;;
39898;SDS011;25571;47.876;10.642;2024-01-30T12:10:10;3.55;;;1.80;;
39898;SDS011;25571;47.876;10.642;2024-01-30T12:12:38;3.97;;;2.05;;
39898;SDS011;25571;47.876;10.642;2024-01-30T12:15:06;3.75;;;1.95;;
39898;SDS011;25571;47.876;10.642;2024-01-30T12:17:33;1.98;;;1.50;;
39898;SDS011;25571;47.876;10.642;2024-01-30T12:20:09;2.55;;;1.70;;
39898;SDS011;25571;47.876;10.642;2024-01-30T12:22:42;5.47;;;1.50;;
39898;SDS011;25571;47.876;10.642;2024-01-30T12:25:12;2.63;;;1.70;;
39898;SDS011;25571;47.876;10.642;2024-01-30T12:27:39;5.85;;;1.75;;
39898;SDS011;25571;47.876;10.642;2024-01-30T12:30:08;5.05;;;1.48;;
39898;SDS011;25571;47.876;10.642;2024-01-30T12:32:44;3.30;;;1.80;;
39898;SDS011;25571;47.876;10.642;2024-01-30T12:35:12;4.13;;;1.73;;
39898;SDS011;25571;47.876;10.642;2024-01-30T12:37:38;3.92;;;2.38;;
39898;SDS011;25571;47.876;10.642;2024-01-30T12:40:04;5.10;;;2.33;;
39898;SDS011;25571;47.876;10.642;2024-01-30T12:42:34;4.80;;;2.13;;
39898;SDS011;25571;47.876;10.642;2024-01-30T12:45:01;3.15;;;1.75;;
39898;SDS011;25571;47.876;10.642;2024-01-30T12:47:30;3.42;;;2.42;;
39898;SDS011;25571;47.876;10.642;2024-01-30T12:49:57;2.25;;;1.55;;
39898;SDS011;25571;47.876;10.642;2024-01-30T12:52:23;2.38;;;1.75;;
39898;SDS011;25571;47.876;10.642;2024-01-30T12:54:48;4.82;;;1.75;;
39898;SDS011;25571;47.876;10.642;2024-01-30T12:57:14;3.88;;;1.83;;
39898;SDS011;25571;47.876;10.642;2024-01-30T12:59:41;4.03;;;1.75;;
39898;SDS011;25571;47.876;10.642;2024-01-30T13:02:06;2.65;;;1.67;;
39898;SDS011;25571;47.876;10.642;2024-01-30T13:04:33;3.67;;;1.80;;
39898;SDS011;25571;47.876;10.642;2024-01-30T13:06:58;2.15;;;1.40;;
39898;SDS011;25571;47.876;10.642;2024-01-30T13:09:25;2.60;;;1.52;;
39898;SDS011;25571;47.876;10.642;2024-01-30T13:11:51;2.42;;;1.45;;
39898;SDS011;25571;47.876;10.642;2024-01-30T13:14:17;3.30;;;1.80;;
39898;SDS011;25571;47.876;10.642;2024-01-30T13:16:43;3.20;;;1.23;;
39898;SDS011;25571;47.876;10.642;2024-01-30T13:19:09;3.35;;;1.50;;
39898;SDS011;25571;47.876;10.642;2024-01-30T13:21:35;2.55;;;1.33;;
39898;SDS011;25571;47.876;10.642;2024-01-30T13:24:00;1.65;;;1.10;;
39898;SDS011;25571;47.876;10.642;2024-01-30T13:26:26;2.42;;;1.30;;
39898;SDS011;25571;47.876;10.642;2024-01-30T13:28:52;2.28;;;1.52;;
39898;SDS011;25571;47.876;10.642;2024-01-30T13:31:17;3.00;;;1.30;;
39898;SDS011;25571;47.876;10.642;2024-01-30T13:33:44;1.73;;;1.10;;
39898;SDS011;25571;47.876;10.642;2024-01-30T13:36:10;1.65;;;1.00;;
39898;SDS011;25571;47.876;10.642;2024-01-30T13:38:37;4.15;;;1.27;;
39898;SDS011;25571;47.876;10.642;2024-01-30T13:41:03;1.67;;;1.00;;
39898;SDS011;25571;47.876;10.642;2024-01-30T13:43:28;2.55;;;1.30;;
39898;SDS011;25571;47.876;10.642;2024-01-30T13:45:54;2.63;;;1.27;;
39898;SDS011;25571;47.876;10.642;2024-01-30T13:48:20;3.08;;;1.42;;
39898;SDS011;25571;47.876;10.642;2024-01-30T13:50:45;1.60;;;1.45;;
39898;SDS011;25571;47.876;10.642;2024-01-30T13:53:11;1.77;;;1.48;;
39898;SDS011;25571;47.876;10.642;2024-01-30T13:55:37;2.40;;;1.70;;
39898;SDS011;25571;47.876;10.642;2024-01-30T13:58:04;2.45;;;1.63;;
39898;SDS011;25571;47.876;10.642;2024-01-30T14:00:30;2.65;;;1.60;;
39898;SDS011;25571;47.876;10.642;2024-01-30T14:02:55;1.88;;;1.40;;
39898;SDS011;25571;47.876;10.642;2024-01-30T14:05:23;3.47;;;1.77;;
39898;SDS011;25571;47.876;10.642;2024-01-30T14:07:48;2.70;;;1.30;;
39898;SDS011;25571;47.876;10.642;2024-01-30T14:10:15;2.67;;;1.70;;
39898;SDS011;25571;47.876;10.642;2024-01-30T14:12:41;2.55;;;1.60;;
39898;SDS011;25571;47.876;10.642;2024-01-30T14:15:08;3.10;;;1.38;;
39898;SDS011;25571;47.876;10.642;2024-01-30T14:17:34;2.25;;;1.50;;
39898;SDS011;25571;47.876;10.642;2024-01-30T14:20:01;2.55;;;1.63;;
39898;SDS011;25571;47.876;10.642;2024-01-30T14:22:28;3.03;;;1.85;;
39898;SDS011;25571;47.876;10.642;2024-01-30T14:24:53;2.28;;;1.40;;
39898;SDS011;25571;47.876;10.642;2024-01-30T14:27:19;3.13;;;1.50;;
39898;SDS011;25571;47.876;10.642;2024-01-30T14:29:45;2.15;;;1.48;;
39898;SDS011;25571;47.876;10.642;2024-01-30T14:32:10;2.88;;;1.80;;
39898;SDS011;25571;47.876;10.642;2024-01-30T14:34:36;2.53;;;1.70;;
39898;SDS011;25571;47.876;10.642;2024-01-30T14:37:01;3.45;;;1.73;;